This is the latest recevied weather packets stored in our database for station/object DF2AP-13. If no packets are shown the sender has not sent any weather packets the latest 10 day(s).
| Time | Temp. | Humidity | Pressure | Rain* | Wind** | Luminosity | Snow |
|---|---|---|---|---|---|---|---|
| 1777657527 | 22.22° C | 34% | 1025.3 hPa | - | - | - | - |
| 1777656933 | 26.67° C | 27% | 1024.7 hPa | - | - | - | - |
| 1777656327 | 29.44° C | 25% | 1024.5 hPa | - | - | - | - |
| 1777655727 | 29.44° C | 25% | 1024.5 hPa | - | - | - | - |
| 1777655127 | 29.44° C | 25% | 1024.5 hPa | - | - | - | - |
| 1777654527 | 30.56° C | 24% | 1024.4 hPa | - | - | - | - |
| 1777653927 | 31.11° C | 23% | 1024.4 hPa | - | - | - | - |
| 1777653327 | 30.56° C | 23% | 1024.6 hPa | - | - | - | - |
| 1777652727 | 31.11° C | 23% | 1024.6 hPa | - | - | - | - |
| 1777652127 | 32.22° C | 22% | 1024.6 hPa | - | - | - | - |
| 1777651527 | 30.56° C | 25% | 1024.9 hPa | - | - | - | - |
| 1777650927 | 27.22° C | 27% | 1025.4 hPa | - | - | - | - |
| 1777650327 | 26.11° C | 28% | 1025.5 hPa | - | - | - | - |
| 1777649727 | 25.56° C | 30% | 1025.7 hPa | - | - | - | - |
| 1777649132 | 24.44° C | 31% | 1025.8 hPa | - | - | - | - |
| 1777648527 | 23.89° C | 33% | 1026.2 hPa | - | - | - | - |
| 1777647927 | 24.44° C | 30% | 1026.1 hPa | - | - | - | - |
| 1777647327 | 23.89° C | 30% | 1026.3 hPa | - | - | - | - |
| 1777646727 | 23.89° C | 30% | 1026.4 hPa | - | - | - | - |
| 1777646132 | 23.89° C | 31% | 1026.6 hPa | - | - | - | - |
| 1777645527 | 23.33° C | 32% | 1026.8 hPa | - | - | - | - |
| 1777644927 | 23.33° C | 32% | 1026.8 hPa | - | - | - | - |
| 1777644327 | 23.89° C | 31% | 1026.9 hPa | - | - | - | - |
| 1777643727 | 23.89° C | 32% | 1026.9 hPa | - | - | - | - |
| 1777643127 | 23.33° C | 33% | 1027.2 hPa | - | - | - | - |
* Rain since midnight (hover to see other rain measurements)
** Current wind speed in m/s (hover to see current wind gust speed)